sensor_id;sensor_type;location;lat;lon;timestamp;pressure;altitude;pressure_sealevel;temperature;humidity
498;BME280;39559;48.630;9.162;2023-04-10T00:00:08;98067.34;;;-0.30;100.00
498;BME280;39559;48.630;9.162;2023-04-10T00:02:34;98065.50;;;-0.47;100.00
498;BME280;39559;48.630;9.162;2023-04-10T00:05:04;98062.94;;;-0.47;100.00
498;BME280;39559;48.630;9.162;2023-04-10T00:07:30;98071.59;;;-0.32;100.00
498;BME280;39559;48.630;9.162;2023-04-10T00:09:56;98074.03;;;-0.40;100.00
498;BME280;39559;48.630;9.162;2023-04-10T00:12:22;98072.19;;;-0.58;100.00
498;BME280;39559;48.630;9.162;2023-04-10T00:14:47;98078.16;;;-0.56;100.00
498;BME280;39559;48.630;9.162;2023-04-10T00:17:13;98070.41;;;-0.64;100.00
498;BME280;39559;48.630;9.162;2023-04-10T00:21:37;98066.31;;;-0.48;100.00
498;BME280;39559;48.630;9.162;2023-04-10T00:24:02;98066.34;;;-0.46;100.00
498;BME280;39559;48.630;9.162;2023-04-10T00:26:29;98063.06;;;-0.34;100.00
498;BME280;39559;48.630;9.162;2023-04-10T00:28:54;98056.94;;;-0.50;100.00
498;BME280;39559;48.630;9.162;2023-04-10T00:31:20;98058.34;;;-0.77;100.00
498;BME280;39559;48.630;9.162;2023-04-10T00:33:45;98055.75;;;-0.82;100.00
498;BME280;39559;48.630;9.162;2023-04-10T00:36:11;98055.81;;;-0.75;100.00
498;BME280;39559;48.630;9.162;2023-04-10T00:38:36;98044.66;;;-0.85;100.00
498;BME280;39559;48.630;9.162;2023-04-10T00:41:02;98048.03;;;-0.86;100.00
498;BME280;39559;48.630;9.162;2023-04-10T00:45:37;98050.66;;;-0.79;100.00
498;BME280;39559;48.630;9.162;2023-04-10T00:48:03;98052.97;;;-0.99;100.00
498;BME280;39559;48.630;9.162;2023-04-10T00:50:29;98041.94;;;-0.99;100.00
498;BME280;39559;48.630;9.162;2023-04-10T00:52:55;98048.66;;;-1.06;100.00
498;BME280;39559;48.630;9.162;2023-04-10T00:55:22;98044.44;;;-1.05;100.00
498;BME280;39559;48.630;9.162;2023-04-10T00:57:47;98048.56;;;-1.13;100.00
498;BME280;39559;48.630;9.162;2023-04-10T01:00:14;98036.66;;;-1.14;100.00
498;BME280;39559;48.630;9.162;2023-04-10T01:02:40;98046.91;;;-1.10;100.00
498;BME280;39559;48.630;9.162;2023-04-10T01:05:07;98041.88;;;-1.04;100.00
498;BME280;39559;48.630;9.162;2023-04-10T01:14:50;98037.66;;;-1.03;100.00
498;BME280;39559;48.630;9.162;2023-04-10T01:17:25;98040.19;;;-1.05;100.00
498;BME280;39559;48.630;9.162;2023-04-10T01:20:12;98047.00;;;-1.01;100.00
498;BME280;39559;48.630;9.162;2023-04-10T01:23:01;98051.13;;;-1.12;100.00
498;BME280;39559;48.630;9.162;2023-04-10T01:25:44;98056.31;;;-1.07;100.00
498;BME280;39559;48.630;9.162;2023-04-10T01:33:46;98056.88;;;-1.27;100.00
498;BME280;39559;48.630;9.162;2023-04-10T01:36:20;98049.03;;;-1.41;100.00
498;BME280;39559;48.630;9.162;2023-04-10T01:38:46;98055.03;;;-1.37;100.00
498;BME280;39559;48.630;9.162;2023-04-10T01:41:13;98052.50;;;-1.37;100.00
498;BME280;39559;48.630;9.162;2023-04-10T01:43:40;98054.91;;;-1.46;100.00
498;BME280;39559;48.630;9.162;2023-04-10T01:46:07;98050.66;;;-1.46;100.00
498;BME280;39559;48.630;9.162;2023-04-10T01:48:34;98043.16;;;-1.37;100.00
498;BME280;39559;48.630;9.162;2023-04-10T01:51:02;98049.16;;;-1.34;100.00
498;BME280;39559;48.630;9.162;2023-04-10T01:53:30;98041.34;;;-1.45;100.00
498;BME280;39559;48.630;9.162;2023-04-10T01:57:36;98035.38;;;-1.46;100.00
498;BME280;39559;48.630;9.162;2023-04-10T02:00:02;98033.50;;;-1.59;100.00
498;BME280;39559;48.630;9.162;2023-04-10T02:02:32;98041.06;;;-1.65;100.00
498;BME280;39559;48.630;9.162;2023-04-10T02:04:58;98038.31;;;-1.79;100.00
498;BME280;39559;48.630;9.162;2023-04-10T02:07:40;98038.16;;;-1.88;100.00
498;BME280;39559;48.630;9.162;2023-04-10T02:10:14;98038.06;;;-1.93;100.00
498;BME280;39559;48.630;9.162;2023-04-10T02:12:49;98030.66;;;-1.79;100.00
498;BME280;39559;48.630;9.162;2023-04-10T02:15:19;98025.75;;;-1.67;100.00
498;BME280;39559;48.630;9.162;2023-04-10T02:17:46;98029.09;;;-1.71;100.00
498;BME280;39559;48.630;9.162;2023-04-10T02:21:37;98033.13;;;-1.85;100.00
498;BME280;39559;48.630;9.162;2023-04-10T02:24:05;98041.53;;;-1.89;100.00
498;BME280;39559;48.630;9.162;2023-04-10T02:26:46;98047.53;;;-1.86;100.00
498;BME280;39559;48.630;9.162;2023-04-10T02:29:12;98046.63;;;-1.89;100.00
498;BME280;39559;48.630;9.162;2023-04-10T02:31:39;98045.75;;;-1.91;100.00
498;BME280;39559;48.630;9.162;2023-04-10T02:34:05;98038.16;;;-1.88;100.00
498;BME280;39559;48.630;9.162;2023-04-10T02:36:31;98035.28;;;-2.08;100.00
498;BME280;39559;48.630;9.162;2023-04-10T02:38:57;98036.25;;;-2.02;100.00
498;BME280;39559;48.630;9.162;2023-04-10T02:41:23;98035.38;;;-2.02;100.00
498;BME280;39559;48.630;9.162;2023-04-10T02:45:36;98031.41;;;-1.86;100.00
498;BME280;39559;48.630;9.162;2023-04-10T02:48:04;98044.88;;;-1.94;100.00
498;BME280;39559;48.630;9.162;2023-04-10T02:50:30;98042.34;;;-1.92;100.00
498;BME280;39559;48.630;9.162;2023-04-10T02:52:56;98044.16;;;-1.85;100.00
498;BME280;39559;48.630;9.162;2023-04-10T02:55:22;98038.28;;;-1.81;100.00
498;BME280;39559;48.630;9.162;2023-04-10T02:57:47;98050.25;;;-1.74;100.00
498;BME280;39559;48.630;9.162;2023-04-10T03:00:13;98045.13;;;-1.78;100.00
498;BME280;39559;48.630;9.162;2023-04-10T03:02:39;98046.91;;;-1.72;100.00
498;BME280;39559;48.630;9.162;2023-04-10T03:05:05;98051.59;;;-1.97;100.00
498;BME280;39559;48.630;9.162;2023-04-10T03:09:37;98055.75;;;-2.02;100.00
498;BME280;39559;48.630;9.162;2023-04-10T03:12:03;98059.88;;;-2.10;100.00
498;BME280;39559;48.630;9.162;2023-04-10T03:14:28;98061.56;;;-2.09;100.00
498;BME280;39559;48.630;9.162;2023-04-10T03:16:54;98059.72;;;-2.20;100.00
498;BME280;39559;48.630;9.162;2023-04-10T03:19:19;98056.25;;;-2.23;100.00
498;BME280;39559;48.630;9.162;2023-04-10T03:21:45;98045.25;;;-2.21;100.00
498;BME280;39559;48.630;9.162;2023-04-10T03:24:11;98036.16;;;-2.08;100.00
498;BME280;39559;48.630;9.162;2023-04-10T03:26:37;98042.38;;;-1.90;100.00
498;BME280;39559;48.630;9.162;2023-04-10T03:29:02;98038.06;;;-1.95;100.00
498;BME280;39559;48.630;9.162;2023-04-10T03:33:38;98025.75;;;-2.22;100.00
498;BME280;39559;48.630;9.162;2023-04-10T03:36:04;98023.97;;;-2.26;100.00
498;BME280;39559;48.630;9.162;2023-04-10T03:38:29;98021.31;;;-2.34;100.00
498;BME280;39559;48.630;9.162;2023-04-10T03:40:55;98024.84;;;-2.24;100.00
498;BME280;39559;48.630;9.162;2023-04-10T03:43:21;98031.00;;;-2.13;100.00
498;BME280;39559;48.630;9.162;2023-04-10T03:45:46;98023.88;;;-2.32;100.00
498;BME280;39559;48.630;9.162;2023-04-10T03:48:12;98017.97;;;-2.29;100.00
498;BME280;39559;48.630;9.162;2023-04-10T03:50:37;98013.72;;;-2.32;100.00
498;BME280;39559;48.630;9.162;2023-04-10T03:53:03;98008.84;;;-2.18;100.00
498;BME280;39559;48.630;9.162;2023-04-10T03:57:38;98005.66;;;-2.05;100.00
498;BME280;39559;48.630;9.162;2023-04-10T04:00:04;98009.88;;;-2.07;100.00
498;BME280;39559;48.630;9.162;2023-04-10T04:02:30;98011.56;;;-2.09;100.00
498;BME280;39559;48.630;9.162;2023-04-10T04:04:56;98012.34;;;-2.12;100.00
498;BME280;39559;48.630;9.162;2023-04-10T04:07:22;98013.84;;;-2.23;100.00
498;BME280;39559;48.630;9.162;2023-04-10T04:09:47;98013.69;;;-2.34;100.00
498;BME280;39559;48.630;9.162;2023-04-10T04:12:13;98009.41;;;-2.36;100.00
498;BME280;39559;48.630;9.162;2023-04-10T04:14:38;98005.25;;;-2.29;100.00
498;BME280;39559;48.630;9.162;2023-04-10T04:17:04;98004.59;;;-2.19;100.00
498;BME280;39559;48.630;9.162;2023-04-10T04:21:39;98002.19;;;-2.10;100.00
498;BME280;39559;48.630;9.162;2023-04-10T04:24:05;97998.81;;;-2.09;100.00
498;BME280;39559;48.630;9.162;2023-04-10T04:26:30;97998.81;;;-2.07;100.00
498;BME280;39559;48.630;9.162;2023-04-10T04:28:56;98002.19;;;-2.10;100.00
498;BME280;39559;48.630;9.162;2023-04-10T04:31:21;98002.94;;;-2.16;100.00
498;BME280;39559;48.630;9.162;2023-04-10T04:33:48;98002.88;;;-2.19;100.00
498;BME280;39559;48.630;9.162;2023-04-10T04:36:14;98005.56;;;-2.13;100.00
498;BME280;39559;48.630;9.162;2023-04-10T04:38:39;97996.31;;;-2.06;100.00
498;BME280;39559;48.630;9.162;2023-04-10T04:41:05;97993.75;;;-2.06;100.00
498;BME280;39559;48.630;9.162;2023-04-10T04:45:40;98000.59;;;-2.03;100.00
498;BME280;39559;48.630;9.162;2023-04-10T04:48:06;97997.19;;;-2.05;100.00
498;BME280;39559;48.630;9.162;2023-04-10T04:50:31;97997.94;;;-2.09;100.00
498;BME280;39559;48.630;9.162;2023-04-10T04:52:57;97995.53;;;-2.02;100.00
498;BME280;39559;48.630;9.162;2023-04-10T04:55:24;97997.88;;;-2.14;100.00
498;BME280;39559;48.630;9.162;2023-04-10T04:57:50;97990.94;;;-2.24;100.00
498;BME280;39559;48.630;9.162;2023-04-10T05:00:15;97993.59;;;-2.18;100.00
498;BME280;39559;48.630;9.162;2023-04-10T05:02:41;97993.59;;;-2.18;100.00
498;BME280;39559;48.630;9.162;2023-04-10T05:05:07;97992.75;;;-2.17;100.00
498;BME280;39559;48.630;9.162;2023-04-10T05:09:42;97997.28;;;-1.99;100.00
498;BME280;39559;48.630;9.162;2023-04-10T05:12:07;97997.09;;;-2.10;100.00
498;BME280;39559;48.630;9.162;2023-04-10T05:14:33;97996.28;;;-2.09;100.00
498;BME280;39559;48.630;9.162;2023-04-10T05:16:58;98000.78;;;-1.89;100.00
498;BME280;39559;48.630;9.162;2023-04-10T05:19:24;97996.44;;;-1.97;100.00
498;BME280;39559;48.630;9.162;2023-04-10T05:21:49;97991.28;;;-2.03;100.00
498;BME280;39559;48.630;9.162;2023-04-10T05:24:15;97996.69;;;-1.81;100.00
498;BME280;39559;48.630;9.162;2023-04-10T05:26:41;97990.00;;;-1.73;100.00
498;BME280;39559;48.630;9.162;2023-04-10T05:29:06;98002.75;;;-1.75;100.00
498;BME280;39559;48.630;9.162;2023-04-10T05:33:42;97994.47;;;-1.60;100.00
498;BME280;39559;48.630;9.162;2023-04-10T05:36:09;98006.34;;;-1.59;100.00
498;BME280;39559;48.630;9.162;2023-04-10T05:38:35;98015.69;;;-1.58;100.00
498;BME280;39559;48.630;9.162;2023-04-10T05:41:00;98012.31;;;-1.57;100.00
498;BME280;39559;48.630;9.162;2023-04-10T05:43:26;98010.63;;;-1.56;100.00
498;BME280;39559;48.630;9.162;2023-04-10T05:45:52;98003.66;;;-1.68;100.00
498;BME280;39559;48.630;9.162;2023-04-10T05:48:17;97996.13;;;-1.60;100.00
498;BME280;39559;48.630;9.162;2023-04-10T05:50:43;98007.97;;;-1.62;100.00
498;BME280;39559;48.630;9.162;2023-04-10T05:53:12;98006.53;;;-1.45;100.00
498;BME280;39559;48.630;9.162;2023-04-10T05:57:44;98010.84;;;-1.39;100.00
498;BME280;39559;48.630;9.162;2023-04-10T06:00:10;98017.91;;;-1.17;100.00
498;BME280;39559;48.630;9.162;2023-04-10T06:02:36;98011.41;;;-0.93;100.00
498;BME280;39559;48.630;9.162;2023-04-10T06:05:01;98011.53;;;-0.82;100.00
498;BME280;39559;48.630;9.162;2023-04-10T06:07:27;98013.50;;;-0.56;100.00
498;BME280;39559;48.630;9.162;2023-04-10T06:09:53;98009.94;;;-0.74;100.00
498;BME280;39559;48.630;9.162;2023-04-10T06:12:18;98006.56;;;-0.71;100.00
498;BME280;39559;48.630;9.162;2023-04-10T06:14:44;98009.28;;;-0.56;100.00
498;BME280;39559;48.630;9.162;2023-04-10T06:17:09;98008.41;;;-0.58;100.00
498;BME280;39559;48.630;9.162;2023-04-10T06:21:45;98001.91;;;-0.22;100.00
498;BME280;39559;48.630;9.162;2023-04-10T06:24:11;98008.84;;;-0.10;100.00
498;BME280;39559;48.630;9.162;2023-04-10T06:26:36;98005.41;;;-0.09;100.00
498;BME280;39559;48.630;9.162;2023-04-10T06:29:02;98006.53;;;0.21;100.00
498;BME280;39559;48.630;9.162;2023-04-10T06:31:31;98006.56;;;0.28;100.00
498;BME280;39559;48.630;9.162;2023-04-10T06:33:57;98005.00;;;0.50;100.00
498;BME280;39559;48.630;9.162;2023-04-10T06:36:23;98006.78;;;0.68;100.00
498;BME280;39559;48.630;9.162;2023-04-10T06:38:48;98003.44;;;0.79;100.00
498;BME280;39559;48.630;9.162;2023-04-10T06:41:14;97996.69;;;0.99;100.00
498;BME280;39559;48.630;9.162;2023-04-10T06:45:46;97995.03;;;1.18;100.00
498;BME280;39559;48.630;9.162;2023-04-10T06:48:12;97993.41;;;1.45;100.00
498;BME280;39559;48.630;9.162;2023-04-10T06:50:38;97991.72;;;1.47;100.00
498;BME280;39559;48.630;9.162;2023-04-10T06:53:04;97986.63;;;1.70;100.00
498;BME280;39559;48.630;9.162;2023-04-10T06:55:29;97986.63;;;1.79;100.00
498;BME280;39559;48.630;9.162;2023-04-10T06:57:55;97985.78;;;2.17;100.00
498;BME280;39559;48.630;9.162;2023-04-10T07:00:22;97982.38;;;2.15;100.00
498;BME280;39559;48.630;9.162;2023-04-10T07:02:48;97983.19;;;2.37;100.00
498;BME280;39559;48.630;9.162;2023-04-10T07:05:13;97974.59;;;2.50;100.00
498;BME280;39559;48.630;9.162;2023-04-10T07:09:48;97968.50;;;2.87;100.00
498;BME280;39559;48.630;9.162;2023-04-10T07:12:13;97972.69;;;3.02;100.00
498;BME280;39559;48.630;9.162;2023-04-10T07:14:39;97971.56;;;3.51;100.00
498;BME280;39559;48.630;9.162;2023-04-10T07:17:04;97962.88;;;3.70;100.00
498;BME280;39559;48.630;9.162;2023-04-10T07:19:30;97963.41;;;4.11;100.00
498;BME280;39559;48.630;9.162;2023-04-10T07:21:56;97951.88;;;4.50;100.00
498;BME280;39559;48.630;9.162;2023-04-10T07:24:21;97955.16;;;4.65;100.00
498;BME280;39559;48.630;9.162;2023-04-10T07:26:47;97956.66;;;4.84;100.00
498;BME280;39559;48.630;9.162;2023-04-10T07:29:13;97954.59;;;5.09;100.00
498;BME280;39559;48.630;9.162;2023-04-10T07:33:49;97953.34;;;5.36;100.00
498;BME280;39559;48.630;9.162;2023-04-10T07:36:14;97955.91;;;5.39;100.00
498;BME280;39559;48.630;9.162;2023-04-10T07:38:40;97951.63;;;5.93;100.00
498;BME280;39559;48.630;9.162;2023-04-10T07:41:06;97963.38;;;6.12;100.00
498;BME280;39559;48.630;9.162;2023-04-10T07:43:32;97954.34;;;6.37;100.00
498;BME280;39559;48.630;9.162;2023-04-10T07:45:57;97952.50;;;6.90;100.00
498;BME280;39559;48.630;9.162;2023-04-10T07:48:23;97944.38;;;7.07;100.00
498;BME280;39559;48.630;9.162;2023-04-10T07:50:49;97948.78;;;7.02;97.63
498;BME280;39559;48.630;9.162;2023-04-10T07:53:14;97950.03;;;7.26;98.72
498;BME280;39559;48.630;9.162;2023-04-10T07:57:50;97949.69;;;7.79;93.57
498;BME280;39559;48.630;9.162;2023-04-10T08:00:16;97949.97;;;8.02;94.80
498;BME280;39559;48.630;9.162;2023-04-10T08:02:42;97939.16;;;8.21;84.05
498;BME280;39559;48.630;9.162;2023-04-10T08:05:08;97936.56;;;8.55;83.64
498;BME280;39559;48.630;9.162;2023-04-10T08:07:34;97934.25;;;8.76;77.34
498;BME280;39559;48.630;9.162;2023-04-10T08:10:01;97928.56;;;9.24;78.46
498;BME280;39559;48.630;9.162;2023-04-10T08:12:27;97937.22;;;9.51;73.50
498;BME280;39559;48.630;9.162;2023-04-10T08:14:52;97931.16;;;9.79;72.43
498;BME280;39559;48.630;9.162;2023-04-10T08:17:18;97926.13;;;9.74;69.70
498;BME280;39559;48.630;9.162;2023-04-10T08:21:52;97921.31;;;10.66;70.15
498;BME280;39559;48.630;9.162;2023-04-10T08:24:17;97920.88;;;10.03;61.45
498;BME280;39559;48.630;9.162;2023-04-10T08:26:44;97918.31;;;10.53;61.11
498;BME280;39559;48.630;9.162;2023-04-10T08:29:10;97918.81;;;10.88;64.05
498;BME280;39559;48.630;9.162;2023-04-10T08:31:36;97917.13;;;10.62;59.94
498;BME280;39559;48.630;9.162;2023-04-10T08:34:01;97922.75;;;10.98;61.99
498;BME280;39559;48.630;9.162;2023-04-10T08:36:28;97919.81;;;11.29;61.50
498;BME280;39559;48.630;9.162;2023-04-10T08:38:56;97922.75;;;11.44;58.68
498;BME280;39559;48.630;9.162;2023-04-10T08:41:21;97921.84;;;11.23;59.07
498;BME280;39559;48.630;9.162;2023-04-10T08:45:53;97920.75;;;11.50;61.17
498;BME280;39559;48.630;9.162;2023-04-10T08:48:18;97919.19;;;11.46;59.13
498;BME280;39559;48.630;9.162;2023-04-10T08:50:46;97912.78;;;11.55;57.86
498;BME280;39559;48.630;9.162;2023-04-10T08:53:13;97921.63;;;11.05;53.68
498;BME280;39559;48.630;9.162;2023-04-10T08:55:40;97912.91;;;11.30;55.94
498;BME280;39559;48.630;9.162;2023-04-10T08:58:06;97906.34;;;11.64;57.86
498;BME280;39559;48.630;9.162;2023-04-10T09:00:33;97916.88;;;12.05;53.42
498;BME280;39559;48.630;9.162;2023-04-10T09:03:02;97912.38;;;12.08;52.04
498;BME280;39559;48.630;9.162;2023-04-10T09:05:29;97910.94;;;12.22;51.05
498;BME280;39559;48.630;9.162;2023-04-10T09:09:53;97905.91;;;12.58;52.84
498;BME280;39559;48.630;9.162;2023-04-10T09:12:19;97893.56;;;12.22;48.51
498;BME280;39559;48.630;9.162;2023-04-10T09:14:44;97906.47;;;12.65;50.96
498;BME280;39559;48.630;9.162;2023-04-10T09:19:45;97897.06;;;13.38;48.36
498;BME280;39559;48.630;9.162;2023-04-10T09:22:11;97896.72;;;13.27;49.14
498;BME280;39559;48.630;9.162;2023-04-10T09:24:39;97898.25;;;12.93;47.82
498;BME280;39559;48.630;9.162;2023-04-10T09:27:06;97894.81;;;12.93;48.35
498;BME280;39559;48.630;9.162;2023-04-10T09:29:45;97893.19;;;13.28;46.35
498;BME280;39559;48.630;9.162;2023-04-10T09:36:53;97881.06;;;12.89;46.69
498;BME280;39559;48.630;9.162;2023-04-10T09:41:57;97869.88;;;13.25;43.16
498;BME280;39559;48.630;9.162;2023-04-10T09:44:31;97861.75;;;14.20;47.23
498;BME280;39559;48.630;9.162;2023-04-10T09:46:58;97856.09;;;14.63;48.00
498;BME280;39559;48.630;9.162;2023-04-10T09:49:23;97854.00;;;14.18;42.53
498;BME280;39559;48.630;9.162;2023-04-10T09:51:49;97841.88;;;14.00;40.80
498;BME280;39559;48.630;9.162;2023-04-10T09:54:14;97840.63;;;14.25;41.54
498;BME280;39559;48.630;9.162;2023-04-10T09:57:54;97827.56;;;14.25;42.72
498;BME280;39559;48.630;9.162;2023-04-10T10:00:21;97824.91;;;14.42;43.73
498;BME280;39559;48.630;9.162;2023-04-10T10:02:48;97820.53;;;14.76;44.20
498;BME280;39559;48.630;9.162;2023-04-10T10:05:15;97820.00;;;15.33;41.77
498;BME280;39559;48.630;9.162;2023-04-10T10:07:40;97817.44;;;14.18;38.15
498;BME280;39559;48.630;9.162;2023-04-10T10:10:07;97813.25;;;14.65;39.55
498;BME280;39559;48.630;9.162;2023-04-10T10:12:45;97807.56;;;14.90;38.16
498;BME280;39559;48.630;9.162;2023-04-10T10:18:23;97813.59;;;14.59;37.58
498;BME280;39559;48.630;9.162;2023-04-10T10:21:56;97805.16;;;15.80;39.66
498;BME280;39559;48.630;9.162;2023-04-10T10:24:25;97794.13;;;15.89;38.01
498;BME280;39559;48.630;9.162;2023-04-10T10:26:54;97797.91;;;15.99;39.42
498;BME280;39559;48.630;9.162;2023-04-10T10:29:22;97792.13;;;16.23;37.34
498;BME280;39559;48.630;9.162;2023-04-10T10:31:48;97787.69;;;15.18;34.33
498;BME280;39559;48.630;9.162;2023-04-10T10:34:15;97783.56;;;15.14;37.03
498;BME280;39559;48.630;9.162;2023-04-10T10:36:41;97780.38;;;14.93;35.68
498;BME280;39559;48.630;9.162;2023-04-10T10:39:32;97786.59;;;14.58;35.66
498;BME280;39559;48.630;9.162;2023-04-10T10:46:04;97768.03;;;15.11;38.40
498;BME280;39559;48.630;9.162;2023-04-10T10:48:31;97758.09;;;15.78;38.13
498;BME280;39559;48.630;9.162;2023-04-10T10:50:58;97753.38;;;16.14;35.49
498;BME280;39559;48.630;9.162;2023-04-10T10:53:42;97741.00;;;17.40;36.36
498;BME280;39559;48.630;9.162;2023-04-10T10:58:49;97734.38;;;16.66;38.29
498;BME280;39559;48.630;9.162;2023-04-10T11:01:16;97734.47;;;15.94;32.18
498;BME280;39559;48.630;9.162;2023-04-10T11:03:42;97732.59;;;16.81;34.00
498;BME280;39559;48.630;9.162;2023-04-10T11:06:14;97738.38;;;17.13;35.30
498;BME280;39559;48.630;9.162;2023-04-10T11:09:55;97732.63;;;16.66;32.14
498;BME280;39559;48.630;9.162;2023-04-10T11:12:23;97732.09;;;16.47;36.62
498;BME280;39559;48.630;9.162;2023-04-10T11:14:57;97729.13;;;16.66;32.22
498;BME280;39559;48.630;9.162;2023-04-10T11:17:45;97717.63;;;17.63;32.02
498;BME280;39559;48.630;9.162;2023-04-10T11:20:11;97718.47;;;18.15;35.81
498;BME280;39559;48.630;9.162;2023-04-10T11:23:08;97721.13;;;17.89;29.79
498;BME280;39559;48.630;9.162;2023-04-10T11:25:52;97709.09;;;16.79;32.52
498;BME280;39559;48.630;9.162;2023-04-10T11:28:37;97709.38;;;16.75;30.64
498;BME280;39559;48.630;9.162;2023-04-10T11:36:23;97701.69;;;18.05;27.24
498;BME280;39559;48.630;9.162;2023-04-10T11:39:12;97702.19;;;17.18;27.99
498;BME280;39559;48.630;9.162;2023-04-10T11:41:40;97703.63;;;18.27;27.56
498;BME280;39559;48.630;9.162;2023-04-10T11:44:10;97700.81;;;18.04;25.49
498;BME280;39559;48.630;9.162;2023-04-10T11:46:42;97702.09;;;17.98;30.57
498;BME280;39559;48.630;9.162;2023-04-10T11:49:11;97705.84;;;17.03;25.37
498;BME280;39559;48.630;9.162;2023-04-10T11:51:38;97710.13;;;17.70;26.10
498;BME280;39559;48.630;9.162;2023-04-10T11:54:06;97703.06;;;18.84;27.14
498;BME280;39559;48.630;9.162;2023-04-10T11:57:52;97706.47;;;17.06;26.07
498;BME280;39559;48.630;9.162;2023-04-10T12:00:22;97696.06;;;17.45;26.98
498;BME280;39559;48.630;9.162;2023-04-10T12:02:50;97699.63;;;17.44;26.52
498;BME280;39559;48.630;9.162;2023-04-10T12:05:16;97691.28;;;18.03;25.31
498;BME280;39559;48.630;9.162;2023-04-10T12:07:42;97672.69;;;18.43;25.10
498;BME280;39559;48.630;9.162;2023-04-10T12:10:08;97686.53;;;17.95;24.88
498;BME280;39559;48.630;9.162;2023-04-10T12:12:34;97682.75;;;18.12;26.05
498;BME280;39559;48.630;9.162;2023-04-10T12:15:01;97670.63;;;17.84;27.80
498;BME280;39559;48.630;9.162;2023-04-10T12:17:27;97660.03;;;18.48;30.40
498;BME280;39559;48.630;9.162;2023-04-10T12:21:51;97659.50;;;19.40;26.09
498;BME280;39559;48.630;9.162;2023-04-10T12:24:54;97658.09;;;19.23;25.77
498;BME280;39559;48.630;9.162;2023-04-10T12:27:24;97652.59;;;18.66;26.52
498;BME280;39559;48.630;9.162;2023-04-10T12:29:52;97654.31;;;18.30;29.01
498;BME280;39559;48.630;9.162;2023-04-10T12:32:18;97649.19;;;19.36;28.25
498;BME280;39559;48.630;9.162;2023-04-10T12:34:55;97649.13;;;18.41;28.96
498;BME280;39559;48.630;9.162;2023-04-10T12:37:22;97651.78;;;18.29;28.51
498;BME280;39559;48.630;9.162;2023-04-10T12:39:47;97649.72;;;18.21;26.80
498;BME280;39559;48.630;9.162;2023-04-10T12:42:14;97655.72;;;18.71;26.25
498;BME280;39559;48.630;9.162;2023-04-10T12:45:49;97646.69;;;18.99;28.05
498;BME280;39559;48.630;9.162;2023-04-10T12:48:22;97636.75;;;19.50;27.00
498;BME280;39559;48.630;9.162;2023-04-10T12:50:48;97643.63;;;19.86;26.20
498;BME280;39559;48.630;9.162;2023-04-10T12:53:13;97627.38;;;19.23;27.03
498;BME280;39559;48.630;9.162;2023-04-10T12:55:40;97623.19;;;18.61;27.07
498;BME280;39559;48.630;9.162;2023-04-10T12:58:19;97634.09;;;18.07;31.62
498;BME280;39559;48.630;9.162;2023-04-10T13:00:46;97624.28;;;16.79;29.84
498;BME280;39559;48.630;9.162;2023-04-10T13:03:12;97612.56;;;17.50;30.79
498;BME280;39559;48.630;9.162;2023-04-10T13:05:38;97615.19;;;17.50;28.46
498;BME280;39559;48.630;9.162;2023-04-10T13:09:46;97613.81;;;17.96;30.57
498;BME280;39559;48.630;9.162;2023-04-10T13:12:12;97617.47;;;17.16;30.53
498;BME280;39559;48.630;9.162;2023-04-10T13:14:37;97608.44;;;17.07;33.48
498;BME280;39559;48.630;9.162;2023-04-10T13:17:03;97605.81;;;17.07;32.08
498;BME280;39559;48.630;9.162;2023-04-10T13:19:28;97602.28;;;17.34;32.03
498;BME280;39559;48.630;9.162;2023-04-10T13:21:54;97597.97;;;17.33;32.33
498;BME280;39559;48.630;9.162;2023-04-10T13:24:20;97597.84;;;17.35;31.08
498;BME280;39559;48.630;9.162;2023-04-10T13:26:46;97600.03;;;17.15;28.19
498;BME280;39559;48.630;9.162;2023-04-10T13:29:11;97584.44;;;17.26;32.15
498;BME280;39559;48.630;9.162;2023-04-10T13:33:47;97588.41;;;17.06;30.69
498;BME280;39559;48.630;9.162;2023-04-10T13:36:15;97589.84;;;17.75;32.09
498;BME280;39559;48.630;9.162;2023-04-10T13:38:41;97580.13;;;17.25;30.20
498;BME280;39559;48.630;9.162;2023-04-10T13:41:07;97579.81;;;17.17;31.51
498;BME280;39559;48.630;9.162;2023-04-10T13:43:32;97571.59;;;17.35;31.38
498;BME280;39559;48.630;9.162;2023-04-10T13:45:58;97569.94;;;17.59;31.76
498;BME280;39559;48.630;9.162;2023-04-10T13:48:23;97563.53;;;17.38;32.49
498;BME280;39559;48.630;9.162;2023-04-10T13:50:49;97577.38;;;16.88;30.97
498;BME280;39559;48.630;9.162;2023-04-10T13:53:15;97570.25;;;17.03;30.97
498;BME280;39559;48.630;9.162;2023-04-10T13:57:40;97563.72;;;17.35;30.13
498;BME280;39559;48.630;9.162;2023-04-10T14:00:06;97550.47;;;17.62;33.34
498;BME280;39559;48.630;9.162;2023-04-10T14:02:33;97547.75;;;17.63;31.61
498;BME280;39559;48.630;9.162;2023-04-10T14:04:58;97555.53;;;17.52;31.22
498;BME280;39559;48.630;9.162;2023-04-10T14:07:24;97552.72;;;17.30;30.50
498;BME280;39559;48.630;9.162;2023-04-10T14:09:49;97553.66;;;17.29;29.16
498;BME280;39559;48.630;9.162;2023-04-10T14:12:15;97549.69;;;16.97;29.88
498;BME280;39559;48.630;9.162;2023-04-10T14:14:42;97537.47;;;17.35;29.40
498;BME280;39559;48.630;9.162;2023-04-10T14:17:07;97537.28;;;16.86;34.19
498;BME280;39559;48.630;9.162;2023-04-10T14:21:37;97532.13;;;16.45;31.20
498;BME280;39559;48.630;9.162;2023-04-10T14:24:04;97526.16;;;16.43;30.66
498;BME280;39559;48.630;9.162;2023-04-10T14:26:30;97530.19;;;16.74;34.23
498;BME280;39559;48.630;9.162;2023-04-10T14:28:55;97520.81;;;17.10;32.01
498;BME280;39559;48.630;9.162;2023-04-10T14:31:21;97522.59;;;16.97;33.10
498;BME280;39559;48.630;9.162;2023-04-10T14:33:48;97524.50;;;16.67;31.91
498;BME280;39559;48.630;9.162;2023-04-10T14:36:13;97514.81;;;16.95;33.02
498;BME280;39559;48.630;9.162;2023-04-10T14:38:39;97513.88;;;16.96;31.50
498;BME280;39559;48.630;9.162;2023-04-10T14:41:05;97510.31;;;17.23;33.20
498;BME280;39559;48.630;9.162;2023-04-10T14:45:33;97503.91;;;17.14;35.79
498;BME280;39559;48.630;9.162;2023-04-10T14:47:59;97511.97;;;17.37;31.15
498;BME280;39559;48.630;9.162;2023-04-10T14:50:25;97513.59;;;17.01;30.71
498;BME280;39559;48.630;9.162;2023-04-10T14:52:53;97512.13;;;16.69;31.76
498;BME280;39559;48.630;9.162;2023-04-10T14:55:18;97510.69;;;16.78;30.05